createdAt,value
2023-03-19T00:02:16.580Z,46.86
2023-03-19T00:04:44.098Z,46.92
2023-03-19T00:07:11.236Z,47.05
2023-03-19T00:09:37.849Z,46.94
2023-03-19T00:12:05.181Z,47.08
2023-03-19T00:14:31.789Z,46.88
2023-03-19T00:16:58.447Z,46.97
2023-03-19T00:19:25.275Z,47.05
2023-03-19T00:21:52.218Z,47.18
2023-03-19T00:24:19.068Z,47.26
2023-03-19T00:26:45.707Z,47.43
2023-03-19T00:29:12.755Z,46.98
2023-03-19T00:31:40.651Z,47.23
2023-03-19T00:34:08.167Z,47.65
2023-03-19T00:36:35.557Z,47.33
2023-03-19T00:39:02.156Z,47.53
2023-03-19T00:41:28.928Z,47.52
2023-03-19T00:43:57.328Z,47.48
2023-03-19T00:46:25.519Z,47.86
2023-03-19T00:48:55.438Z,47.59
2023-03-19T00:51:23.605Z,47.79
2023-03-19T00:53:51.060Z,48.08
2023-03-19T00:56:18.301Z,47.75
2023-03-19T00:58:46.677Z,47.81
2023-03-19T01:01:16.769Z,47.61
2023-03-19T01:03:45.026Z,47.38
2023-03-19T01:06:12.150Z,47.42
2023-03-19T01:08:39.240Z,48.04
2023-03-19T01:11:12.907Z,48.24
2023-03-19T01:13:39.629Z,48.76
2023-03-19T01:16:06.974Z,48.98
2023-03-19T01:18:33.671Z,48.76
2023-03-19T01:21:00.818Z,48.91
2023-03-19T01:23:29.352Z,48.11
2023-03-19T01:25:56.958Z,48.65
2023-03-19T01:28:25.172Z,48.57
2023-03-19T01:30:52.337Z,48.59
2023-03-19T01:33:44.812Z,48.92
2023-03-19T01:36:17.727Z,49.14
2023-03-19T01:39:04.816Z,49.36
2023-03-19T01:41:31.877Z,49.59
2023-03-19T01:44:31.524Z,49.73
2023-03-19T01:47:41.785Z,49.55
2023-03-19T01:50:25.875Z,49.98
2023-03-19T01:53:06.714Z,49.94
2023-03-19T01:55:47.213Z,50.12
2023-03-19T01:58:37.596Z,50.26
2023-03-19T02:01:13.604Z,50.47
2023-03-19T02:03:44.942Z,50.27
2023-03-19T02:06:18.889Z,50.25
2023-03-19T02:08:46.747Z,50.49
2023-03-19T02:11:13.860Z,50.01
2023-03-19T02:13:40.475Z,50.51
2023-03-19T02:16:07.554Z,50.41
2023-03-19T02:18:34.607Z,50.16
2023-03-19T02:21:09.826Z,50.03
2023-03-19T02:23:49.838Z,49.76
2023-03-19T02:26:22.060Z,50.03
2023-03-19T02:28:52.620Z,49.01
2023-03-19T02:31:24.820Z,49.33
2023-03-19T02:34:05.996Z,49.68
2023-03-19T02:36:47.325Z,49.65
2023-03-19T02:39:22.685Z,49.47
2023-03-19T02:41:51.940Z,49.38
2023-03-19T02:44:19.984Z,49.54
2023-03-19T02:46:47.452Z,49.42
2023-03-19T02:49:14.095Z,49.90
2023-03-19T02:51:41.884Z,49.75
2023-03-19T02:54:08.824Z,50.04
2023-03-19T02:56:35.583Z,50.37
2023-03-19T02:59:02.248Z,50.40
2023-03-19T03:01:29.962Z,50.22
2023-03-19T03:03:56.561Z,50.76
2023-03-19T03:06:23.258Z,50.88
2023-03-19T03:08:49.833Z,50.86
2023-03-19T03:11:16.450Z,51.16
2023-03-19T03:13:42.985Z,51.26
2023-03-19T03:16:09.662Z,51.22
2023-03-19T03:18:36.720Z,50.56
2023-03-19T03:21:03.552Z,50.47
2023-03-19T03:23:30.134Z,50.07
2023-03-19T03:25:56.675Z,49.88
2023-03-19T03:28:23.288Z,49.63
2023-03-19T03:30:50.371Z,49.84
2023-03-19T03:33:17.357Z,49.86
2023-03-19T03:35:43.937Z,50.03
2023-03-19T03:38:11.373Z,49.86
2023-03-19T03:40:38.089Z,50.59
2023-03-19T03:43:04.769Z,50.72
2023-03-19T03:45:33.545Z,51.17
2023-03-19T03:48:00.670Z,51.37
2023-03-19T03:50:28.190Z,51.61
2023-03-19T03:52:56.988Z,51.45
2023-03-19T03:55:23.559Z,51.30
2023-03-19T03:57:50.150Z,51.65
2023-03-19T04:00:16.943Z,51.72
2023-03-19T04:02:44.680Z,51.12
2023-03-19T04:05:14.709Z,51.45
2023-03-19T04:07:41.411Z,50.69
2023-03-19T04:10:09.591Z,50.84
2023-03-19T04:12:37.880Z,50.95
2023-03-19T04:15:05.924Z,50.91
2023-03-19T04:17:33.050Z,51.02
2023-03-19T04:20:00.016Z,51.03
2023-03-19T04:22:27.282Z,51.12
2023-03-19T04:24:53.936Z,50.78
2023-03-19T04:27:20.956Z,50.92
2023-03-19T04:29:47.558Z,51.04
2023-03-19T04:32:16.694Z,51.03
2023-03-19T04:34:43.421Z,51.21
2023-03-19T04:37:10.335Z,51.10
2023-03-19T04:39:44.422Z,51.00
2023-03-19T04:42:11.458Z,51.33
2023-03-19T04:45:08.236Z,51.05
2023-03-19T04:47:35.640Z,50.63
2023-03-19T04:50:02.806Z,50.61
2023-03-19T04:52:31.849Z,50.30
2023-03-19T04:54:58.375Z,50.23
2023-03-19T04:57:24.891Z,50.32
2023-03-19T04:59:53.870Z,50.31
2023-03-19T05:02:21.941Z,50.49
2023-03-19T05:04:48.621Z,50.27
2023-03-19T05:07:15.461Z,50.10
2023-03-19T05:09:43.920Z,49.90
2023-03-19T05:12:12.279Z,49.48
2023-03-19T05:14:44.062Z,49.81
2023-03-19T05:17:18.428Z,49.75
2023-03-19T05:20:01.447Z,49.58
2023-03-19T05:22:29.805Z,49.36
2023-03-19T05:24:57.726Z,49.40
2023-03-19T05:27:25.040Z,49.54
2023-03-19T05:30:08.269Z,49.67
2023-03-19T05:32:40.901Z,49.35
2023-03-19T05:35:14.352Z,48.93
2023-03-19T05:37:42.493Z,49.06
2023-03-19T05:40:09.915Z,48.53
2023-03-19T05:42:37.861Z,47.75
2023-03-19T05:45:05.386Z,47.65
2023-03-19T05:47:50.152Z,47.53
2023-03-19T05:50:19.167Z,47.52
2023-03-19T05:53:05.676Z,47.58
2023-03-19T05:55:35.244Z,47.18
2023-03-19T05:58:07.655Z,47.09
2023-03-19T06:00:34.523Z,46.93
2023-03-19T06:03:01.480Z,46.70
2023-03-19T06:05:28.132Z,46.68
2023-03-19T06:07:59.458Z,46.90
2023-03-19T06:10:42.325Z,46.27
2023-03-19T06:13:11.289Z,46.15
2023-03-19T06:15:41.058Z,46.03
2023-03-19T06:18:14.158Z,45.74
2023-03-19T06:20:40.812Z,45.99
2023-03-19T06:23:07.972Z,45.68
2023-03-19T06:25:34.554Z,45.33
2023-03-19T06:28:01.100Z,45.84
2023-03-19T06:30:34.283Z,45.47
2023-03-19T06:33:03.901Z,45.42
2023-03-19T06:35:32.255Z,45.38
2023-03-19T06:37:58.935Z,45.49
2023-03-19T06:40:25.535Z,45.04
2023-03-19T06:42:52.304Z,44.88
2023-03-19T06:45:19.389Z,45.87
2023-03-19T06:47:47.546Z,45.72
2023-03-19T06:50:18.911Z,45.15
2023-03-19T06:52:45.903Z,45.37
2023-03-19T06:55:12.599Z,45.49
2023-03-19T06:57:39.245Z,45.91
2023-03-19T07:00:07.521Z,45.44
2023-03-19T07:02:34.107Z,45.91
2023-03-19T07:05:00.628Z,45.99
2023-03-19T07:07:27.280Z,45.22
2023-03-19T07:09:53.863Z,45.40
2023-03-19T07:12:20.758Z,45.28
2023-03-19T07:14:47.327Z,45.79
2023-03-19T07:17:13.903Z,45.44
2023-03-19T07:19:40.671Z,45.38
2023-03-19T07:22:07.759Z,46.08
2023-03-19T07:24:34.329Z,45.93
2023-03-19T07:27:00.847Z,46.24
2023-03-19T07:29:27.373Z,45.36
2023-03-19T07:31:53.925Z,45.64
2023-03-19T07:34:20.467Z,45.40
2023-03-19T07:36:47.301Z,45.99
2023-03-19T07:39:13.854Z,45.95
2023-03-19T07:41:40.694Z,46.01
2023-03-19T07:44:11.206Z,45.59
2023-03-19T07:46:37.751Z,46.06
2023-03-19T07:49:04.264Z,45.77
2023-03-19T07:51:30.897Z,45.91
2023-03-19T07:53:57.443Z,45.50
2023-03-19T07:56:24.064Z,45.94
2023-03-19T07:58:51.655Z,45.40
2023-03-19T08:01:18.616Z,45.21
2023-03-19T08:03:45.192Z,45.46
2023-03-19T08:06:11.780Z,45.92
2023-03-19T08:08:38.398Z,45.54
2023-03-19T08:11:05.221Z,45.08
2023-03-19T08:13:31.815Z,45.08
2023-03-19T08:15:58.495Z,45.41
2023-03-19T08:18:25.071Z,45.19
2023-03-19T08:20:51.629Z,46.28
2023-03-19T08:23:18.423Z,45.93
2023-03-19T08:25:45.373Z,45.79
2023-03-19T08:28:12.459Z,46.19
2023-03-19T08:30:39.561Z,45.92
2023-03-19T08:33:06.773Z,45.63
2023-03-19T08:35:33.388Z,45.52
2023-03-19T08:38:00.112Z,45.40
2023-03-19T08:40:26.944Z,45.65
2023-03-19T08:42:54.341Z,45.78
2023-03-19T08:45:21.102Z,45.21
2023-03-19T08:47:48.193Z,45.42
2023-03-19T08:50:15.882Z,46.03
2023-03-19T08:52:42.450Z,45.01
2023-03-19T08:55:10.520Z,44.54
2023-03-19T08:57:37.369Z,44.53
2023-03-19T09:00:08.220Z,44.18
2023-03-19T09:02:36.128Z,44.41
2023-03-19T09:05:02.791Z,44.10
2023-03-19T09:07:29.451Z,44.57
2023-03-19T09:09:56.114Z,43.83
2023-03-19T09:12:22.646Z,43.48
2023-03-19T09:14:49.714Z,43.97
2023-03-19T09:17:18.079Z,43.87
2023-03-19T09:19:44.725Z,44.51
2023-03-19T09:22:11.300Z,44.33
2023-03-19T09:24:40.475Z,44.84
2023-03-19T09:27:07.420Z,44.56
2023-03-19T09:29:34.282Z,44.69
2023-03-19T09:32:00.912Z,45.19
2023-03-19T09:34:27.798Z,46.13
2023-03-19T09:36:55.012Z,46.57
2023-03-19T09:39:21.552Z,47.46
2023-03-19T09:42:03.914Z,47.34
2023-03-19T09:44:44.157Z,47.97
2023-03-19T09:47:21.279Z,48.65
2023-03-19T09:49:49.089Z,47.80
2023-03-19T09:52:47.972Z,48.36
2023-03-19T09:55:23.505Z,48.83
2023-03-19T09:57:51.298Z,48.46
2023-03-19T10:00:24.587Z,48.59
2023-03-19T10:03:05.300Z,48.57
2023-03-19T10:05:59.644Z,49.03
2023-03-19T10:08:42.758Z,48.51
2023-03-19T10:11:32.485Z,48.92
2023-03-19T10:14:43.314Z,48.67
2023-03-19T10:17:19.562Z,48.51
2023-03-19T10:19:57.648Z,47.66
2023-03-19T10:22:34.781Z,47.94
2023-03-19T10:25:02.749Z,46.68
2023-03-19T10:27:29.633Z,46.64
2023-03-19T10:29:56.715Z,45.75
2023-03-19T10:32:41.896Z,46.34
2023-03-19T10:35:27.440Z,48.45
2023-03-19T10:37:55.218Z,48.04
2023-03-19T10:40:36.227Z,48.52
2023-03-19T10:43:20.958Z,49.43
2023-03-19T10:45:49.094Z,47.89
2023-03-19T10:48:17.746Z,47.76
2023-03-19T10:50:52.855Z,47.16
2023-03-19T10:53:19.307Z,46.85
2023-03-19T10:56:06.447Z,45.89
2023-03-19T10:58:35.766Z,44.43
2023-03-19T11:01:09.625Z,44.45
2023-03-19T11:03:37.817Z,43.54
2023-03-19T11:06:07.801Z,43.21
2023-03-19T11:08:36.997Z,40.94
2023-03-19T11:11:03.998Z,40.72
2023-03-19T11:13:33.552Z,40.44
2023-03-19T11:16:00.868Z,40.41
2023-03-19T11:18:30.331Z,40.72
2023-03-19T11:21:25.052Z,39.85
2023-03-19T11:23:59.388Z,38.58
2023-03-19T11:26:28.575Z,38.27
2023-03-19T11:29:02.292Z,38.08
2023-03-19T11:31:47.930Z,38.06
2023-03-19T11:34:27.834Z,38.11
2023-03-19T11:37:12.992Z,37.38
2023-03-19T11:40:03.341Z,38.28
2023-03-19T11:42:46.497Z,38.15
2023-03-19T11:45:22.876Z,38.47
2023-03-19T11:48:27.174Z,38.61
2023-03-19T11:51:12.302Z,38.85
2023-03-19T11:54:22.065Z,38.16
2023-03-19T11:56:55.618Z,38.25
2023-03-19T11:59:43.666Z,38.58
2023-03-19T12:02:37.825Z,37.89
2023-03-19T12:05:18.978Z,37.90
2023-03-19T12:07:57.859Z,37.76
2023-03-19T12:10:59.084Z,37.18
2023-03-19T12:13:39.328Z,36.43
2023-03-19T12:16:30.875Z,36.12
2023-03-19T12:19:26.987Z,33.47
2023-03-19T12:22:06.573Z,30.05
2023-03-19T12:24:40.003Z,28.32
2023-03-19T12:27:33.640Z,28.32
2023-03-19T12:30:17.059Z,26.66
2023-03-19T12:33:11.548Z,24.95
2023-03-19T12:35:41.023Z,26.14
2023-03-19T12:38:45.421Z,25.61
2023-03-19T12:41:29.565Z,26.82
2023-03-19T12:44:06.220Z,28.61
2023-03-19T12:46:38.994Z,29.28
2023-03-19T12:49:11.545Z,30.36
2023-03-19T12:51:45.455Z,30.67
2023-03-19T12:54:28.878Z,31.59
2023-03-19T12:57:12.208Z,32.10
2023-03-19T13:00:10.291Z,30.94
2023-03-19T13:02:44.181Z,30.82
2023-03-19T13:05:32.428Z,31.55
2023-03-19T13:08:12.057Z,32.04
2023-03-19T13:10:39.018Z,32.59
2023-03-19T13:13:36.495Z,32.61
2023-03-19T13:16:18.849Z,32.27
2023-03-19T13:19:10.388Z,31.28
2023-03-19T13:21:39.791Z,32.11
2023-03-19T13:24:27.700Z,33.09
2023-03-19T13:26:56.326Z,34.09
2023-03-19T13:29:31.639Z,35.36
2023-03-19T13:32:25.566Z,36.56
2023-03-19T13:35:28.512Z,36.44
2023-03-19T13:38:20.525Z,36.46
2023-03-19T13:40:52.982Z,36.45
2023-03-19T13:43:40.873Z,36.65
2023-03-19T13:46:13.421Z,36.05
2023-03-19T13:48:45.908Z,35.98
2023-03-19T13:51:12.376Z,35.38
2023-03-19T13:54:23.765Z,35.37
2023-03-19T13:57:01.216Z,34.84
2023-03-19T13:59:33.373Z,34.14
2023-03-19T14:02:02.119Z,34.10
2023-03-19T14:04:32.233Z,33.24
2023-03-19T14:07:15.943Z,31.77
2023-03-19T14:09:45.843Z,31.34
2023-03-19T14:12:29.844Z,30.88
2023-03-19T14:15:08.007Z,29.64
2023-03-19T14:17:38.292Z,27.26
2023-03-19T14:20:12.573Z,26.22
2023-03-19T14:23:08.700Z,25.89
2023-03-19T14:26:05.748Z,27.63
2023-03-19T14:28:44.570Z,28.72
2023-03-19T14:31:26.622Z,28.87
2023-03-19T14:33:59.581Z,28.71
2023-03-19T14:36:28.343Z,28.21
2023-03-19T14:39:08.900Z,25.36
2023-03-19T14:41:43.230Z,21.88
2023-03-19T14:44:22.956Z,20.16
2023-03-19T14:46:58.730Z,18.59
2023-03-19T14:49:51.721Z,18.36
2023-03-19T14:52:59.723Z,17.58
2023-03-19T14:55:35.784Z,16.91
2023-03-19T14:58:02.901Z,17.65
2023-03-19T15:00:37.247Z,17.94
2023-03-19T15:03:03.764Z,18.65
2023-03-19T15:05:36.684Z,19.16
2023-03-19T15:08:07.281Z,19.25
2023-03-19T15:11:02.464Z,19.28
2023-03-19T15:13:35.248Z,19.52
2023-03-19T15:16:24.842Z,20.04
2023-03-19T15:18:51.621Z,21.20
2023-03-19T15:21:18.802Z,21.41
2023-03-19T15:23:46.822Z,22.39
2023-03-19T15:26:13.638Z,23.07
2023-03-19T15:28:49.268Z,24.28
2023-03-19T15:31:31.702Z,24.54
2023-03-19T15:34:21.076Z,25.97
2023-03-19T15:37:01.200Z,26.50
2023-03-19T15:39:33.467Z,26.93
2023-03-19T15:42:02.090Z,27.37
2023-03-19T15:44:33.814Z,27.31
2023-03-19T15:47:03.677Z,27.08
2023-03-19T15:49:37.257Z,27.80
2023-03-19T15:52:08.400Z,27.48
2023-03-19T15:54:35.360Z,29.18
2023-03-19T15:57:02.066Z,29.49
2023-03-19T15:59:31.418Z,29.49
2023-03-19T16:02:01.237Z,28.87
2023-03-19T16:04:30.229Z,29.18
2023-03-19T16:06:58.701Z,30.03
2023-03-19T16:09:29.713Z,30.24
2023-03-19T16:11:57.085Z,30.48
2023-03-19T16:14:29.650Z,30.36
2023-03-19T16:17:02.282Z,30.61
2023-03-19T16:19:37.683Z,31.87
2023-03-19T16:22:31.408Z,31.59
2023-03-19T16:24:59.133Z,32.03
2023-03-19T16:27:39.842Z,32.61
2023-03-19T16:30:21.356Z,32.76
2023-03-19T16:32:59.248Z,32.60
2023-03-19T16:35:28.051Z,32.45
2023-03-19T16:37:54.996Z,32.60
2023-03-19T16:40:21.450Z,32.93
2023-03-19T16:42:50.888Z,32.72
2023-03-19T16:45:22.089Z,33.32
2023-03-19T16:47:54.090Z,33.93
2023-03-19T16:50:22.985Z,34.73
2023-03-19T16:52:50.031Z,35.57
2023-03-19T16:55:28.489Z,35.77
2023-03-19T16:58:11.466Z,34.93
2023-03-19T17:00:38.861Z,35.04
2023-03-19T17:03:12.364Z,35.75
2023-03-19T17:05:38.943Z,36.62
2023-03-19T17:08:05.560Z,36.89
2023-03-19T17:10:33.367Z,37.89
2023-03-19T17:13:00.818Z,37.73
2023-03-19T17:15:37.124Z,36.92
2023-03-19T17:18:12.841Z,36.69
2023-03-19T17:20:49.515Z,36.70
2023-03-19T17:23:16.210Z,37.27
2023-03-19T17:25:43.751Z,37.14
2023-03-19T17:28:10.281Z,37.31
2023-03-19T17:30:38.298Z,38.09
2023-03-19T17:33:05.549Z,38.54
2023-03-19T17:35:33.940Z,38.66
2023-03-19T17:38:00.717Z,39.28
2023-03-19T17:40:27.986Z,39.76
2023-03-19T17:42:55.838Z,40.34
2023-03-19T17:45:29.566Z,39.29
2023-03-19T17:47:58.390Z,39.95
2023-03-19T17:50:31.386Z,40.26
2023-03-19T17:52:58.545Z,40.33
2023-03-19T17:55:28.027Z,39.95
2023-03-19T17:57:55.943Z,40.42
2023-03-19T18:00:24.566Z,40.46
2023-03-19T18:02:53.978Z,41.11
2023-03-19T18:05:23.519Z,41.26
2023-03-19T18:07:53.383Z,41.78
2023-03-19T18:10:30.178Z,42.06
2023-03-19T18:12:59.902Z,42.33
2023-03-19T18:15:28.777Z,42.18
2023-03-19T18:17:56.977Z,42.20
2023-03-19T18:20:28.062Z,42.32
2023-03-19T18:22:54.650Z,42.30
2023-03-19T18:25:23.802Z,42.47
2023-03-19T18:27:50.901Z,42.53
2023-03-19T18:30:21.598Z,42.25
2023-03-19T18:32:52.585Z,42.39
2023-03-19T18:35:24.497Z,42.48
2023-03-19T18:37:52.103Z,42.55
2023-03-19T18:40:30.175Z,42.67
2023-03-19T18:42:57.290Z,43.04
2023-03-19T18:45:28.466Z,43.22
2023-03-19T18:47:56.846Z,43.24
2023-03-19T18:50:32.411Z,43.19
2023-03-19T18:52:58.980Z,43.33
2023-03-19T18:55:30.363Z,43.79
2023-03-19T18:58:02.785Z,43.56
2023-03-19T19:00:32.186Z,43.89
2023-03-19T19:03:00.471Z,43.56
2023-03-19T19:05:29.650Z,43.83
2023-03-19T19:08:01.693Z,43.62
2023-03-19T19:10:34.461Z,44.01
2023-03-19T19:13:02.143Z,43.88
2023-03-19T19:15:36.311Z,43.85
2023-03-19T19:18:23.435Z,44.12
2023-03-19T19:20:52.444Z,44.30
2023-03-19T19:23:20.563Z,44.70
2023-03-19T19:25:50.756Z,44.55
2023-03-19T19:28:21.588Z,45.04
2023-03-19T19:30:49.533Z,44.91
2023-03-19T19:33:20.269Z,44.84
2023-03-19T19:35:46.966Z,44.39
2023-03-19T19:38:13.588Z,44.47
2023-03-19T19:40:42.999Z,46.07
2023-03-19T19:43:22.759Z,45.96
2023-03-19T19:45:52.694Z,45.88
2023-03-19T19:48:25.498Z,45.83
2023-03-19T19:50:53.117Z,45.60
2023-03-19T19:53:20.566Z,45.48
2023-03-19T19:55:47.764Z,45.24
2023-03-19T19:58:32.450Z,44.84
2023-03-19T20:01:03.728Z,44.98
2023-03-19T20:03:33.060Z,45.19
2023-03-19T20:06:01.861Z,45.50
2023-03-19T20:08:28.801Z,45.74
2023-03-19T20:10:56.881Z,46.11
2023-03-19T20:13:35.291Z,45.77
2023-03-19T20:16:02.691Z,45.97
2023-03-19T20:18:32.739Z,46.12
2023-03-19T20:20:59.602Z,46.48
2023-03-19T20:23:26.574Z,46.37
2023-03-19T20:25:53.650Z,46.89
2023-03-19T20:28:33.953Z,46.70
2023-03-19T20:31:01.520Z,48.02
2023-03-19T20:33:31.095Z,47.21
2023-03-19T20:35:58.454Z,47.53
2023-03-19T20:38:27.086Z,47.69
2023-03-19T20:40:56.398Z,47.82
2023-03-19T20:43:33.305Z,48.25
2023-03-19T20:46:04.314Z,48.61
2023-03-19T20:48:32.046Z,49.07
2023-03-19T20:51:00.012Z,51.14
2023-03-19T20:53:26.987Z,53.72
2023-03-19T20:55:54.006Z,55.20
2023-03-19T20:58:30.762Z,56.50
2023-03-19T21:00:58.552Z,55.88
2023-03-19T21:03:27.689Z,57.04
2023-03-19T21:06:21.690Z,60.07
2023-03-19T21:08:53.214Z,60.33
2023-03-19T21:11:29.205Z,60.02
2023-03-19T21:13:55.773Z,61.21
2023-03-19T21:16:25.511Z,60.64
2023-03-19T21:18:53.853Z,62.19
2023-03-19T21:21:34.406Z,62.54
2023-03-19T21:24:15.489Z,62.29
2023-03-19T21:26:42.846Z,62.52
2023-03-19T21:29:28.911Z,64.04
2023-03-19T21:31:56.688Z,63.23
2023-03-19T21:34:23.566Z,63.38
2023-03-19T21:36:50.797Z,63.11
2023-03-19T21:39:17.775Z,63.29
2023-03-19T21:41:46.215Z,63.13
2023-03-19T21:44:16.539Z,63.00
2023-03-19T21:46:46.400Z,63.99
2023-03-19T21:49:13.014Z,64.07
2023-03-19T21:51:39.663Z,64.24
2023-03-19T21:54:06.179Z,63.77
2023-03-19T21:56:38.974Z,63.36
2023-03-19T21:59:19.087Z,63.35
2023-03-19T22:01:46.594Z,63.62
2023-03-19T22:04:13.279Z,63.40
2023-03-19T22:06:40.244Z,64.26
2023-03-19T22:09:06.809Z,63.36
2023-03-19T22:11:36.691Z,62.88
2023-03-19T22:14:14.232Z,62.85
2023-03-19T22:16:40.935Z,62.84
2023-03-19T22:19:11.953Z,62.79
2023-03-19T22:21:38.470Z,62.91
2023-03-19T22:24:05.257Z,62.69
2023-03-19T22:26:34.604Z,62.65
2023-03-19T22:29:04.796Z,62.63
2023-03-19T22:31:32.367Z,62.38
2023-03-19T22:33:59.221Z,62.59
2023-03-19T22:36:25.950Z,62.29
2023-03-19T22:38:52.480Z,62.12
2023-03-19T22:41:29.044Z,62.28
2023-03-19T22:43:57.050Z,62.30
2023-03-19T22:46:24.981Z,61.84
2023-03-19T22:48:52.117Z,62.21
2023-03-19T22:51:21.602Z,61.84
2023-03-19T22:53:48.535Z,61.59
2023-03-19T22:56:16.420Z,61.68
2023-03-19T22:58:43.649Z,61.30
2023-03-19T23:01:28.775Z,61.70
2023-03-19T23:03:56.212Z,61.67
2023-03-19T23:06:30.690Z,61.71
2023-03-19T23:08:58.046Z,61.33
2023-03-19T23:11:24.783Z,61.51
2023-03-19T23:13:51.707Z,61.20
2023-03-19T23:16:23.876Z,61.16
2023-03-19T23:18:51.664Z,61.22
2023-03-19T23:21:19.675Z,61.23
2023-03-19T23:23:46.816Z,61.08
2023-03-19T23:26:29.151Z,60.84
2023-03-19T23:29:06.503Z,61.20
2023-03-19T23:31:34.895Z,61.07
2023-03-19T23:34:01.600Z,61.11
2023-03-19T23:36:28.176Z,61.02
2023-03-19T23:38:54.697Z,61.04
2023-03-19T23:41:24.941Z,61.13
2023-03-19T23:43:52.907Z,60.83
2023-03-19T23:46:20.133Z,61.10
2023-03-19T23:48:46.802Z,60.97
2023-03-19T23:51:14.902Z,60.75
2023-03-19T23:53:42.349Z,60.92
2023-03-19T23:56:18.461Z,60.93
2023-03-19T23:58:47.176Z,60.68
